sensor_id;sensor_type;location;lat;lon;timestamp;pressure;altitude;pressure_sealevel;temperature;humidity
64095;BME280;50353;51.420;5.682;2023-03-23T00:00:22;100016.25;;;13.28;84.87
64095;BME280;50353;51.420;5.682;2023-03-23T00:02:47;100010.09;;;13.28;84.63
64095;BME280;50353;51.420;5.682;2023-03-23T00:05:12;100003.63;;;13.21;84.24
64095;BME280;50353;51.420;5.682;2023-03-23T00:07:38;100014.38;;;12.98;85.81
64095;BME280;50353;51.420;5.682;2023-03-23T00:10:10;100022.66;;;13.05;85.30
64095;BME280;50353;51.420;5.682;2023-03-23T00:12:35;100020.47;;;13.10;nan
64095;BME280;50353;51.420;5.682;2023-03-23T00:15:05;100005.50;;;13.30;84.37
64095;BME280;50353;51.420;5.682;2023-03-23T00:17:32;100002.66;;;12.79;86.74
64095;BME280;50353;51.420;5.682;2023-03-23T00:20:02;100012.97;;;13.15;85.68
64095;BME280;50353;51.420;5.682;2023-03-23T00:22:30;100008.25;;;13.18;85.10
64095;BME280;50353;51.420;5.682;2023-03-23T00:24:55;100006.22;;;13.11;84.29
64095;BME280;50353;51.420;5.682;2023-03-23T00:27:21;99997.25;;;13.02;85.35
64095;BME280;50353;51.420;5.682;2023-03-23T00:29:48;100006.91;;;13.13;84.76
64095;BME280;50353;51.420;5.682;2023-03-23T00:32:18;100000.47;;;13.06;85.55
64095;BME280;50353;51.420;5.682;2023-03-23T00:34:45;100013.06;;;12.92;86.70
64095;BME280;50353;51.420;5.682;2023-03-23T00:37:13;99997.03;;;13.15;85.29
64095;BME280;50353;51.420;5.682;2023-03-23T00:39:41;99991.91;;;13.23;84.21
64095;BME280;50353;51.420;5.682;2023-03-23T00:42:09;99994.38;;;13.36;83.23
64095;BME280;50353;51.420;5.682;2023-03-23T00:44:35;99998.19;;;12.80;85.96
64095;BME280;50353;51.420;5.682;2023-03-23T00:47:01;100001.94;;;13.19;85.31
64095;BME280;50353;51.420;5.682;2023-03-23T00:49:27;100009.31;;;12.95;86.10
64095;BME280;50353;51.420;5.682;2023-03-23T00:51:54;99996.50;;;13.00;85.57
64095;BME280;50353;51.420;5.682;2023-03-23T00:54:20;99999.06;;;13.23;84.63
64095;BME280;50353;51.420;5.682;2023-03-23T00:56:46;99995.94;;;13.17;84.57
64095;BME280;50353;51.420;5.682;2023-03-23T00:59:12;99991.72;;;13.36;82.89
64095;BME280;50353;51.420;5.682;2023-03-23T01:01:38;99990.38;;;13.42;83.23
64095;BME280;50353;51.420;5.682;2023-03-23T01:04:05;99982.16;;;13.02;85.38
64095;BME280;50353;51.420;5.682;2023-03-23T01:06:32;99990.72;;;13.06;85.28
64095;BME280;50353;51.420;5.682;2023-03-23T01:09:00;99999.06;;;13.23;85.33
64095;BME280;50353;51.420;5.682;2023-03-23T01:11:26;99985.81;;;13.32;84.73
64095;BME280;50353;51.420;5.682;2023-03-23T01:13:51;99992.69;;;13.35;83.71
64095;BME280;50353;51.420;5.682;2023-03-23T01:16:17;99995.94;;;13.39;83.96
64095;BME280;50353;51.420;5.682;2023-03-23T01:18:43;100001.63;;;13.34;83.75
64095;BME280;50353;51.420;5.682;2023-03-23T01:21:11;99972.84;;;13.29;83.86
64095;BME280;50353;51.420;5.682;2023-03-23T01:23:37;99948.88;;;13.19;85.86
64095;BME280;50353;51.420;5.682;2023-03-23T01:26:05;99961.91;;;13.23;85.71
64095;BME280;50353;51.420;5.682;2023-03-23T01:28:32;99959.66;;;13.28;84.93
64095;BME280;50353;51.420;5.682;2023-03-23T01:31:09;99953.34;;;13.19;85.18
64095;BME280;50353;51.420;5.682;2023-03-23T01:33:37;99972.25;;;13.26;85.78
64095;BME280;50353;51.420;5.682;2023-03-23T01:36:04;99949.53;;;13.12;86.55
64095;BME280;50353;51.420;5.682;2023-03-23T01:38:31;99938.28;;;12.98;87.26
64095;BME280;50353;51.420;5.682;2023-03-23T01:40:57;99939.97;;;12.78;88.61
64095;BME280;50353;51.420;5.682;2023-03-23T01:43:22;99954.06;;;13.21;86.14
64095;BME280;50353;51.420;5.682;2023-03-23T01:45:47;99954.31;;;13.18;85.88
64095;BME280;50353;51.420;5.682;2023-03-23T01:48:15;99944.56;;;12.76;87.84
64095;BME280;50353;51.420;5.682;2023-03-23T01:50:52;99947.59;;;12.93;87.56
64095;BME280;50353;51.420;5.682;2023-03-23T01:53:19;99956.97;;;13.18;86.32
64095;BME280;50353;51.420;5.682;2023-03-23T01:55:47;99954.06;;;13.21;85.06
64095;BME280;50353;51.420;5.682;2023-03-23T01:58:17;99962.63;;;13.34;85.89
64095;BME280;50353;51.420;5.682;2023-03-23T02:00:44;99958.25;;;13.24;86.13
64095;BME280;50353;51.420;5.682;2023-03-23T02:03:10;99962.78;;;13.33;84.84
64095;BME280;50353;51.420;5.682;2023-03-23T02:05:40;99944.88;;;13.04;85.58
64095;BME280;50353;51.420;5.682;2023-03-23T02:08:07;99943.63;;;13.29;84.69
64095;BME280;50353;51.420;5.682;2023-03-23T02:10:35;99937.69;;;12.95;87.25
64095;BME280;50353;51.420;5.682;2023-03-23T02:13:03;99929.91;;;13.03;85.31
64095;BME280;50353;51.420;5.682;2023-03-23T02:27:38;99916.97;;;13.31;84.03
64095;BME280;50353;51.420;5.682;2023-03-23T02:30:15;99914.22;;;13.42;83.77
64095;BME280;50353;51.420;5.682;2023-03-23T02:35:43;99916.84;;;13.11;85.58
64095;BME280;50353;51.420;5.682;2023-03-23T02:38:21;99903.75;;;12.89;86.53
64095;BME280;50353;51.420;5.682;2023-03-23T02:40:49;99909.69;;;13.33;85.46
64095;BME280;50353;51.420;5.682;2023-03-23T02:43:20;99913.94;;;13.14;85.45
64095;BME280;50353;51.420;5.682;2023-03-23T02:45:47;99910.06;;;13.49;84.26
64095;BME280;50353;51.420;5.682;2023-03-23T02:48:15;99893.75;;;13.54;83.86
64095;BME280;50353;51.420;5.682;2023-03-23T02:50:43;99887.75;;;13.31;84.56
64095;BME280;50353;51.420;5.682;2023-03-23T02:53:12;99899.81;;;13.76;84.22
64095;BME280;50353;51.420;5.682;2023-03-23T02:55:41;99893.59;;;13.25;85.96
64095;BME280;50353;51.420;5.682;2023-03-23T02:58:11;99899.28;;;13.51;85.65
64095;BME280;50353;51.420;5.682;2023-03-23T03:00:37;99903.25;;;13.26;86.94
64095;BME280;50353;51.420;5.682;2023-03-23T03:03:05;99906.41;;;13.19;86.16
64095;BME280;50353;51.420;5.682;2023-03-23T03:05:39;99896.53;;;13.52;86.08
64095;BME280;50353;51.420;5.682;2023-03-23T03:11:07;99896.78;;;13.49;84.46
64095;BME280;50353;51.420;5.682;2023-03-23T03:13:49;99887.72;;;13.52;84.41
64095;BME280;50353;51.420;5.682;2023-03-23T03:16:38;99893.28;;;13.49;84.57
64095;BME280;50353;51.420;5.682;2023-03-23T03:19:09;99907.00;;;13.44;85.33
64095;BME280;50353;51.420;5.682;2023-03-23T03:21:40;99893.19;;;13.29;85.66
64095;BME280;50353;51.420;5.682;2023-03-23T03:24:07;99916.53;;;13.05;86.21
64095;BME280;50353;51.420;5.682;2023-03-23T03:26:37;99899.69;;;13.15;87.41
64095;BME280;50353;51.420;5.682;2023-03-23T03:29:05;99903.03;;;13.39;85.11
64095;BME280;50353;51.420;5.682;2023-03-23T03:31:35;99902.13;;;13.59;83.94
64095;BME280;50353;51.420;5.682;2023-03-23T03:34:00;99900.53;;;13.47;84.61
64095;BME280;50353;51.420;5.682;2023-03-23T03:36:31;99894.44;;;13.56;84.75
64095;BME280;50353;51.420;5.682;2023-03-23T03:39:02;99905.28;;;13.43;84.02
64095;BME280;50353;51.420;5.682;2023-03-23T03:41:36;99906.06;;;13.65;83.19
64095;BME280;50353;51.420;5.682;2023-03-23T03:44:05;99896.13;;;13.57;83.42
64095;BME280;50353;51.420;5.682;2023-03-23T03:46:31;99903.69;;;13.31;84.26
64095;BME280;50353;51.420;5.682;2023-03-23T03:48:58;99910.59;;;13.43;83.12
64095;BME280;50353;51.420;5.682;2023-03-23T03:51:25;99916.28;;;13.69;81.93
64095;BME280;50353;51.420;5.682;2023-03-23T03:53:50;99911.75;;;13.50;83.09
64095;BME280;50353;51.420;5.682;2023-03-23T03:56:15;99905.81;;;13.78;81.65
64095;BME280;50353;51.420;5.682;2023-03-23T03:58:41;99914.53;;;13.49;82.36
64095;BME280;50353;51.420;5.682;2023-03-23T04:01:08;99907.97;;;13.53;81.68
64095;BME280;50353;51.420;5.682;2023-03-23T04:03:36;99914.19;;;13.73;81.13
64095;BME280;50353;51.420;5.682;2023-03-23T04:06:02;99916.88;;;13.42;82.11
64095;BME280;50353;51.420;5.682;2023-03-23T04:08:28;99912.88;;;13.58;79.95
64095;BME280;50353;51.420;5.682;2023-03-23T04:10:54;99912.88;;;13.58;80.35
64095;BME280;50353;51.420;5.682;2023-03-23T04:13:20;99912.88;;;13.58;80.37
64095;BME280;50353;51.420;5.682;2023-03-23T04:15:45;99912.22;;;13.65;79.28
64095;BME280;50353;51.420;5.682;2023-03-23T04:18:11;99917.94;;;13.61;80.14
64095;BME280;50353;51.420;5.682;2023-03-23T04:20:37;99927.06;;;13.37;79.95
64095;BME280;50353;51.420;5.682;2023-03-23T04:23:03;99927.78;;;13.39;79.27
64095;BME280;50353;51.420;5.682;2023-03-23T04:25:28;99920.13;;;13.46;79.11
64095;BME280;50353;51.420;5.682;2023-03-23T04:27:58;99933.53;;;13.44;79.13
64095;BME280;50353;51.420;5.682;2023-03-23T04:30:27;99938.44;;;13.28;80.01
64095;BME280;50353;51.420;5.682;2023-03-23T04:32:53;99933.25;;;13.47;79.32
64095;BME280;50353;51.420;5.682;2023-03-23T04:35:21;99932.31;;;13.58;77.84
64095;BME280;50353;51.420;5.682;2023-03-23T04:37:48;99942.38;;;13.55;78.38
64095;BME280;50353;51.420;5.682;2023-03-23T04:40:14;99937.63;;;13.58;78.80
64095;BME280;50353;51.420;5.682;2023-03-23T04:42:42;99946.31;;;13.70;77.86
64095;BME280;50353;51.420;5.682;2023-03-23T04:45:11;99960.72;;;13.67;78.13
64095;BME280;50353;51.420;5.682;2023-03-23T04:47:38;99950.94;;;13.68;77.68
64095;BME280;50353;51.420;5.682;2023-03-23T04:50:10;99955.63;;;13.55;77.79
64095;BME280;50353;51.420;5.682;2023-03-23T04:52:37;99963.69;;;13.43;78.76
64095;BME280;50353;51.420;5.682;2023-03-23T04:55:04;99954.25;;;13.60;78.07
64095;BME280;50353;51.420;5.682;2023-03-23T04:57:31;99953.53;;;13.48;78.07
64095;BME280;50353;51.420;5.682;2023-03-23T04:59:56;99956.28;;;13.47;78.46
64095;BME280;50353;51.420;5.682;2023-03-23T05:02:21;99963.69;;;13.43;78.92
64095;BME280;50353;51.420;5.682;2023-03-23T05:04:46;99954.47;;;13.38;79.43
64095;BME280;50353;51.420;5.682;2023-03-23T05:07:12;99947.53;;;13.56;78.14
64095;BME280;50353;51.420;5.682;2023-03-23T05:09:37;99953.38;;;13.29;79.88
64095;BME280;50353;51.420;5.682;2023-03-23T05:12:07;99955.31;;;13.48;79.27
64095;BME280;50353;51.420;5.682;2023-03-23T05:14:33;99955.19;;;13.49;78.50
64095;BME280;50353;51.420;5.682;2023-03-23T05:16:58;99955.16;;;13.71;77.32
64095;BME280;50353;51.420;5.682;2023-03-23T05:19:24;99951.16;;;13.55;77.95
64095;BME280;50353;51.420;5.682;2023-03-23T05:21:49;99960.06;;;13.23;79.48
64095;BME280;50353;51.420;5.682;2023-03-23T05:24:14;99958.13;;;13.46;78.54
64095;BME280;50353;51.420;5.682;2023-03-23T05:26:39;99957.94;;;13.38;79.21
64095;BME280;50353;51.420;5.682;2023-03-23T05:29:05;99953.25;;;13.51;78.59
64095;BME280;50353;51.420;5.682;2023-03-23T05:31:30;99963.50;;;13.35;79.66
64095;BME280;50353;51.420;5.682;2023-03-23T05:33:56;99959.78;;;13.38;79.34
64095;BME280;50353;51.420;5.682;2023-03-23T05:36:21;99960.63;;;13.48;78.73
64095;BME280;50353;51.420;5.682;2023-03-23T05:38:48;99959.94;;;13.46;78.33
64095;BME280;50353;51.420;5.682;2023-03-23T05:41:14;99969.38;;;13.60;77.64
64095;BME280;50353;51.420;5.682;2023-03-23T05:43:40;99969.75;;;13.34;78.64
64095;BME280;50353;51.420;5.682;2023-03-23T05:46:06;99969.25;;;13.40;78.84
64095;BME280;50353;51.420;5.682;2023-03-23T05:48:33;99978.06;;;13.19;80.26
64095;BME280;50353;51.420;5.682;2023-03-23T05:50:58;99962.34;;;13.07;80.19
64095;BME280;50353;51.420;5.682;2023-03-23T05:53:24;99962.22;;;13.29;79.82
64095;BME280;50353;51.420;5.682;2023-03-23T05:55:49;99959.78;;;13.38;78.74
64095;BME280;50353;51.420;5.682;2023-03-23T05:58:15;99967.09;;;13.55;78.78
64095;BME280;50353;51.420;5.682;2023-03-23T06:00:40;99965.19;;;13.36;79.44
64095;BME280;50353;51.420;5.682;2023-03-23T06:03:06;99967.06;;;13.45;79.03
64095;BME280;50353;51.420;5.682;2023-03-23T06:05:31;99961.56;;;13.37;79.67
64095;BME280;50353;51.420;5.682;2023-03-23T06:07:57;99963.16;;;13.49;78.88
64095;BME280;50353;51.420;5.682;2023-03-23T06:10:23;99972.50;;;13.23;79.71
64095;BME280;50353;51.420;5.682;2023-03-23T06:12:49;99978.41;;;13.47;79.37
64095;BME280;50353;51.420;5.682;2023-03-23T06:15:16;99968.84;;;12.93;81.44
64095;BME280;50353;51.420;5.682;2023-03-23T06:17:41;99968.09;;;12.91;80.98
64095;BME280;50353;51.420;5.682;2023-03-23T06:20:07;99981.97;;;13.37;79.20
64095;BME280;50353;51.420;5.682;2023-03-23T06:22:35;99981.38;;;13.54;77.90
64095;BME280;50353;51.420;5.682;2023-03-23T06:25:00;99981.78;;;13.59;77.54
64095;BME280;50353;51.420;5.682;2023-03-23T06:27:26;99990.28;;;13.53;78.13
64095;BME280;50353;51.420;5.682;2023-03-23T06:29:51;99996.06;;;13.37;77.71
64095;BME280;50353;51.420;5.682;2023-03-23T06:32:17;99999.38;;;13.50;77.30
64095;BME280;50353;51.420;5.682;2023-03-23T06:34:42;99998.13;;;13.55;77.26
64095;BME280;50353;51.420;5.682;2023-03-23T06:37:10;99997.81;;;13.48;77.05
64095;BME280;50353;51.420;5.682;2023-03-23T06:39:36;100008.47;;;13.15;79.07
64095;BME280;50353;51.420;5.682;2023-03-23T06:42:03;100010.00;;;13.29;78.04
64095;BME280;50353;51.420;5.682;2023-03-23T06:44:28;100009.81;;;13.21;78.88
64095;BME280;50353;51.420;5.682;2023-03-23T06:46:54;100013.94;;;13.35;77.85
64095;BME280;50353;51.420;5.682;2023-03-23T06:49:19;100015.03;;;13.32;78.46
64095;BME280;50353;51.420;5.682;2023-03-23T06:51:45;100008.47;;;13.58;77.69
64095;BME280;50353;51.420;5.682;2023-03-23T06:54:10;100014.88;;;13.34;78.02
64095;BME280;50353;51.420;5.682;2023-03-23T06:56:36;100027.25;;;13.24;77.86
64095;BME280;50353;51.420;5.682;2023-03-23T06:59:02;100018.50;;;13.44;78.10
64095;BME280;50353;51.420;5.682;2023-03-23T07:01:28;100017.94;;;13.50;77.91
64095;BME280;50353;51.420;5.682;2023-03-23T07:03:54;100026.00;;;13.39;78.08
64095;BME280;50353;51.420;5.682;2023-03-23T07:06:21;100022.84;;;13.34;78.00
64095;BME280;50353;51.420;5.682;2023-03-23T07:08:47;100019.56;;;13.21;78.49
64095;BME280;50353;51.420;5.682;2023-03-23T07:11:12;100029.81;;;13.46;78.07
64095;BME280;50353;51.420;5.682;2023-03-23T07:13:38;100021.97;;;13.45;78.68
64095;BME280;50353;51.420;5.682;2023-03-23T07:16:06;100018.50;;;13.44;78.84
64095;BME280;50353;51.420;5.682;2023-03-23T07:18:32;100024.50;;;13.25;79.51
64095;BME280;50353;51.420;5.682;2023-03-23T07:20:58;100024.94;;;13.51;77.98
64095;BME280;50353;51.420;5.682;2023-03-23T07:23:24;100022.91;;;13.65;77.75
64095;BME280;50353;51.420;5.682;2023-03-23T07:25:49;100025.25;;;13.58;77.80
64095;BME280;50353;51.420;5.682;2023-03-23T07:28:15;100029.84;;;13.56;78.43
64095;BME280;50353;51.420;5.682;2023-03-23T07:30:41;100033.19;;;13.48;77.77
64095;BME280;50353;51.420;5.682;2023-03-23T07:33:08;100032.78;;;13.53;77.54
64095;BME280;50353;51.420;5.682;2023-03-23T07:35:34;100030.00;;;13.33;79.06
64095;BME280;50353;51.420;5.682;2023-03-23T07:37:59;100028.13;;;13.45;78.37
64095;BME280;50353;51.420;5.682;2023-03-23T07:40:26;100031.59;;;13.67;76.99
64095;BME280;50353;51.420;5.682;2023-03-23T07:42:53;100026.59;;;13.74;76.42
64095;BME280;50353;51.420;5.682;2023-03-23T07:45:19;100027.78;;;13.60;76.93
64095;BME280;50353;51.420;5.682;2023-03-23T07:47:44;100026.09;;;13.59;77.60
64095;BME280;50353;51.420;5.682;2023-03-23T07:50:10;100034.69;;;13.72;77.64
64095;BME280;50353;51.420;5.682;2023-03-23T07:52:37;100036.06;;;13.66;77.22
64095;BME280;50353;51.420;5.682;2023-03-23T07:55:04;100033.28;;;13.47;77.53
64095;BME280;50353;51.420;5.682;2023-03-23T07:57:30;100039.81;;;13.64;77.12
64095;BME280;50353;51.420;5.682;2023-03-23T07:59:57;100098.81;;;12.81;80.99
64095;BME280;50353;51.420;5.682;2023-03-23T08:02:24;100109.56;;;12.80;80.92
64095;BME280;50353;51.420;5.682;2023-03-23T08:04:50;100104.81;;;12.51;78.78
64095;BME280;50353;51.420;5.682;2023-03-23T08:07:16;100116.63;;;12.47;80.08
64095;BME280;50353;51.420;5.682;2023-03-23T08:09:42;100107.56;;;11.93;83.38
64095;BME280;50353;51.420;5.682;2023-03-23T08:12:08;100100.63;;;12.14;82.60
64095;BME280;50353;51.420;5.682;2023-03-23T08:14:33;100108.34;;;12.06;83.79
64095;BME280;50353;51.420;5.682;2023-03-23T08:16:59;100105.69;;;11.95;84.63
64095;BME280;50353;51.420;5.682;2023-03-23T08:19:25;100109.06;;;12.20;83.99
64095;BME280;50353;51.420;5.682;2023-03-23T08:21:51;100115.09;;;12.33;83.35
64095;BME280;50353;51.420;5.682;2023-03-23T08:24:17;100128.09;;;12.36;83.70
64095;BME280;50353;51.420;5.682;2023-03-23T08:26:42;100129.91;;;12.36;84.35
64095;BME280;50353;51.420;5.682;2023-03-23T08:29:08;100134.69;;;12.42;84.52
64095;BME280;50353;51.420;5.682;2023-03-23T08:31:34;100135.91;;;12.26;85.21
64095;BME280;50353;51.420;5.682;2023-03-23T08:34:04;100134.22;;;12.25;86.03
64095;BME280;50353;51.420;5.682;2023-03-23T08:36:33;100145.53;;;12.50;84.27
64095;BME280;50353;51.420;5.682;2023-03-23T08:38:59;100148.78;;;12.54;84.56
64095;BME280;50353;51.420;5.682;2023-03-23T08:41:24;100148.66;;;12.55;84.28
64095;BME280;50353;51.420;5.682;2023-03-23T08:43:50;100149.53;;;12.56;84.23
64095;BME280;50353;51.420;5.682;2023-03-23T08:46:17;100151.69;;;12.50;84.96
64095;BME280;50353;51.420;5.682;2023-03-23T08:48:45;100147.00;;;12.31;86.70
64095;BME280;50353;51.420;5.682;2023-03-23T08:51:11;100158.44;;;12.55;86.19
64095;BME280;50353;51.420;5.682;2023-03-23T08:53:37;100150.59;;;12.42;87.03
64095;BME280;50353;51.420;5.682;2023-03-23T08:56:07;100162.28;;;12.62;85.17
64095;BME280;50353;51.420;5.682;2023-03-23T08:58:34;100168.22;;;12.31;86.83
64095;BME280;50353;51.420;5.682;2023-03-23T09:00:59;100165.78;;;12.17;87.05
64095;BME280;50353;51.420;5.682;2023-03-23T09:03:25;100158.22;;;12.46;85.87
64095;BME280;50353;51.420;5.682;2023-03-23T09:05:50;100143.03;;;12.60;86.02
64095;BME280;50353;51.420;5.682;2023-03-23T09:08:16;100150.00;;;12.49;85.72
64095;BME280;50353;51.420;5.682;2023-03-23T09:10:42;100151.53;;;12.75;82.71
64095;BME280;50353;51.420;5.682;2023-03-23T09:13:07;100146.63;;;12.59;82.79
64095;BME280;50353;51.420;5.682;2023-03-23T09:15:33;100148.28;;;12.71;82.43
64095;BME280;50353;51.420;5.682;2023-03-23T09:17:58;100148.75;;;12.88;82.53
64095;BME280;50353;51.420;5.682;2023-03-23T09:20:26;100150.53;;;12.98;82.01
64095;BME280;50353;51.420;5.682;2023-03-23T09:22:54;100159.63;;;12.39;85.36
64095;BME280;50353;51.420;5.682;2023-03-23T09:25:24;100166.34;;;12.77;83.43
64095;BME280;50353;51.420;5.682;2023-03-23T09:27:53;100169.72;;;12.79;84.41
64095;BME280;50353;51.420;5.682;2023-03-23T09:30:26;100173.59;;;12.75;85.47
64095;BME280;50353;51.420;5.682;2023-03-23T09:32:53;100168.66;;;12.59;85.09
64095;BME280;50353;51.420;5.682;2023-03-23T09:35:18;100171.94;;;12.29;88.66
64095;BME280;50353;51.420;5.682;2023-03-23T09:37:47;100158.81;;;12.27;85.50
64095;BME280;50353;51.420;5.682;2023-03-23T09:40:19;100174.81;;;12.14;88.58
64095;BME280;50353;51.420;5.682;2023-03-23T09:45:43;100179.41;;;12.24;87.77
64095;BME280;50353;51.420;5.682;2023-03-23T09:48:27;100167.47;;;12.52;87.86
64095;BME280;50353;51.420;5.682;2023-03-23T09:51:08;100164.47;;;12.23;87.84
64095;BME280;50353;51.420;5.682;2023-03-23T09:53:38;100163.03;;;12.41;87.37
64095;BME280;50353;51.420;5.682;2023-03-23T09:56:14;100159.84;;;11.91;89.21
64095;BME280;50353;51.420;5.682;2023-03-23T09:58:48;100175.44;;;12.41;88.12
64095;BME280;50353;51.420;5.682;2023-03-23T10:01:20;100168.91;;;12.67;86.81
64095;BME280;50353;51.420;5.682;2023-03-23T10:03:47;100171.22;;;13.05;85.16
64095;BME280;50353;51.420;5.682;2023-03-23T10:06:15;100165.13;;;12.81;86.07
64095;BME280;50353;51.420;5.682;2023-03-23T10:08:57;100158.75;;;13.81;82.58
64095;BME280;50353;51.420;5.682;2023-03-23T10:11:50;100159.88;;;14.41;80.67
64095;BME280;50353;51.420;5.682;2023-03-23T10:17:17;100167.41;;;13.41;84.15
64095;BME280;50353;51.420;5.682;2023-03-23T10:19:54;100173.97;;;13.79;82.24
64095;BME280;50353;51.420;5.682;2023-03-23T10:22:32;100172.34;;;13.67;82.13
64095;BME280;50353;51.420;5.682;2023-03-23T10:30:29;100182.91;;;14.61;79.29
64095;BME280;50353;51.420;5.682;2023-03-23T10:33:11;100178.63;;;14.70;79.05
64095;BME280;50353;51.420;5.682;2023-03-23T10:35:45;100187.34;;;14.20;80.28
64095;BME280;50353;51.420;5.682;2023-03-23T10:38:20;100190.53;;;14.45;78.39
64095;BME280;50353;51.420;5.682;2023-03-23T10:40:53;100188.13;;;14.32;78.59
64095;BME280;50353;51.420;5.682;2023-03-23T10:43:20;100183.53;;;14.75;78.32
64095;BME280;50353;51.420;5.682;2023-03-23T10:45:53;100188.38;;;15.20;78.93
64095;BME280;50353;51.420;5.682;2023-03-23T10:48:28;100182.22;;;15.88;74.26
64095;BME280;50353;51.420;5.682;2023-03-23T10:50:57;100184.59;;;15.03;76.45
64095;BME280;50353;51.420;5.682;2023-03-23T10:53:34;100173.94;;;15.71;74.90
64095;BME280;50353;51.420;5.682;2023-03-23T10:56:00;100171.41;;;15.99;74.64
64095;BME280;50353;51.420;5.682;2023-03-23T10:58:31;100176.34;;;15.84;71.97
64095;BME280;50353;51.420;5.682;2023-03-23T11:00:59;100174.00;;;16.19;72.46
64095;BME280;50353;51.420;5.682;2023-03-23T11:06:02;100174.84;;;16.19;72.66
64095;BME280;50353;51.420;5.682;2023-03-23T11:08:31;100173.22;;;15.99;72.30
64095;BME280;50353;51.420;5.682;2023-03-23T11:13:39;100169.63;;;15.51;74.21
64095;BME280;50353;51.420;5.682;2023-03-23T11:16:08;100175.34;;;15.76;74.31
64095;BME280;50353;51.420;5.682;2023-03-23T11:18:37;100170.88;;;15.37;73.61
64095;BME280;50353;51.420;5.682;2023-03-23T11:21:03;100182.38;;;15.47;73.55
64095;BME280;50353;51.420;5.682;2023-03-23T11:23:35;100186.16;;;15.64;73.99
64095;BME280;50353;51.420;5.682;2023-03-23T11:26:13;100187.97;;;15.74;73.86
64095;BME280;50353;51.420;5.682;2023-03-23T11:28:48;100171.47;;;15.41;74.50
64095;BME280;50353;51.420;5.682;2023-03-23T11:31:16;100185.31;;;15.83;74.48
64095;BME280;50353;51.420;5.682;2023-03-23T11:34:00;100177.47;;;15.82;73.45
64095;BME280;50353;51.420;5.682;2023-03-23T11:36:37;100190.94;;;15.80;71.67
64095;BME280;50353;51.420;5.682;2023-03-23T11:39:19;100190.06;;;15.70;73.52
64095;BME280;50353;51.420;5.682;2023-03-23T11:41:46;100195.69;;;15.37;73.62
64095;BME280;50353;51.420;5.682;2023-03-23T11:44:11;100196.38;;;15.79;72.86
64095;BME280;50353;51.420;5.682;2023-03-23T11:46:58;100194.69;;;15.78;73.02
64095;BME280;50353;51.420;5.682;2023-03-23T11:49:57;100196.13;;;15.82;73.33
64095;BME280;50353;51.420;5.682;2023-03-23T11:52:49;100203.38;;;16.09;71.81
64095;BME280;50353;51.420;5.682;2023-03-23T11:55:28;100206.19;;;15.78;72.81
64095;BME280;50353;51.420;5.682;2023-03-23T11:58:00;100208.03;;;15.48;73.90
64095;BME280;50353;51.420;5.682;2023-03-23T12:00:27;100199.50;;;15.54;74.30
64095;BME280;50353;51.420;5.682;2023-03-23T12:03:03;100206.41;;;14.87;75.50
64095;BME280;50353;51.420;5.682;2023-03-23T12:08:34;100194.84;;;15.57;73.14
64095;BME280;50353;51.420;5.682;2023-03-23T12:11:24;100193.59;;;15.31;72.72
64095;BME280;50353;51.420;5.682;2023-03-23T12:14:04;100178.19;;;15.54;72.77
64095;BME280;50353;51.420;5.682;2023-03-23T12:16:57;100182.22;;;15.78;72.18
64095;BME280;50353;51.420;5.682;2023-03-23T12:22:18;100181.81;;;15.53;73.27
64095;BME280;50353;51.420;5.682;2023-03-23T12:28:15;100179.13;;;15.63;71.74
64095;BME280;50353;51.420;5.682;2023-03-23T12:33:36;100171.88;;;16.32;70.63
64095;BME280;50353;51.420;5.682;2023-03-23T12:36:39;100164.34;;;17.01;70.54
64095;BME280;50353;51.420;5.682;2023-03-23T12:44:34;100165.16;;;16.56;68.30
64095;BME280;50353;51.420;5.682;2023-03-23T12:47:29;100163.88;;;16.60;68.61
64095;BME280;50353;51.420;5.682;2023-03-23T12:49:59;100158.16;;;16.17;70.04
64095;BME280;50353;51.420;5.682;2023-03-23T12:52:44;100163.44;;;16.27;69.56
64095;BME280;50353;51.420;5.682;2023-03-23T12:55:20;100135.31;;;16.43;69.96
64095;BME280;50353;51.420;5.682;2023-03-23T12:57:57;100141.25;;;15.79;70.13
64095;BME280;50353;51.420;5.682;2023-03-23T13:00:29;100132.50;;;16.07;70.15
64095;BME280;50353;51.420;5.682;2023-03-23T13:03:07;100141.97;;;16.29;68.19
64095;BME280;50353;51.420;5.682;2023-03-23T13:05:40;100145.59;;;16.37;68.82
64095;BME280;50353;51.420;5.682;2023-03-23T13:08:20;100142.38;;;15.86;69.20
64095;BME280;50353;51.420;5.682;2023-03-23T13:10:50;100151.50;;;16.31;69.59
64095;BME280;50353;51.420;5.682;2023-03-23T13:13:20;100155.88;;;16.60;66.55
64095;BME280;50353;51.420;5.682;2023-03-23T13:15:54;100154.56;;;16.64;65.53
64095;BME280;50353;51.420;5.682;2023-03-23T13:18:40;100145.75;;;16.64;68.33
64095;BME280;50353;51.420;5.682;2023-03-23T13:21:32;100141.63;;;16.69;67.01
64095;BME280;50353;51.420;5.682;2023-03-23T13:24:03;100144.75;;;16.37;68.36
64095;BME280;50353;51.420;5.682;2023-03-23T13:26:30;100140.59;;;16.25;69.82
64095;BME280;50353;51.420;5.682;2023-03-23T13:31:25;100138.22;;;16.49;68.45
64095;BME280;50353;51.420;5.682;2023-03-23T13:33:58;100138.03;;;17.06;66.94
64095;BME280;50353;51.420;5.682;2023-03-23T13:36:31;100132.13;;;16.85;69.18
64095;BME280;50353;51.420;5.682;2023-03-23T13:38:58;100135.28;;;17.16;66.85
64095;BME280;50353;51.420;5.682;2023-03-23T13:41:25;100143.41;;;16.51;67.14
64095;BME280;50353;51.420;5.682;2023-03-23T13:43:52;100139.41;;;16.37;67.04
64095;BME280;50353;51.420;5.682;2023-03-23T13:48:46;100118.25;;;16.53;68.20
64095;BME280;50353;51.420;5.682;2023-03-23T13:51:32;100107.00;;;16.60;67.58
64095;BME280;50353;51.420;5.682;2023-03-23T13:54:13;100099.09;;;16.12;68.26
64095;BME280;50353;51.420;5.682;2023-03-23T13:56:57;100120.84;;;16.17;68.57
64095;BME280;50353;51.420;5.682;2023-03-23T14:01:55;100120.66;;;15.71;71.54
64095;BME280;50353;51.420;5.682;2023-03-23T14:04:23;100123.09;;;16.12;71.41